Time;durP1;ratioP1;P1;durP2;ratioP2;P2;SDS_P1;SDS_P2;PMS_P1;PMS_P2;Temp;Humidity;BMP_temperature;BMP_pressure;BME280_temperature;BME280_humidity;BME280_pressure;Samples;Min_cycle;Max_cycle;Signal;HPM_P1;HPM_P2
2023/07/28 00:02:16;;;;;;;;;;;;;;;15.58;100.00;95216.53;5046254;28;20340;-70
2023/07/28 00:04:42;;;;;;;;;;;;;;;15.44;100.00;95223.00;5051366;28;19924;-70
2023/07/28 00:07:09;;;;;;;;;;;;;;;15.57;100.00;95219.28;5046817;28;19925;-70
2023/07/28 00:09:35;;;;;;;;;;;;;;;15.57;100.00;95220.09;5044581;28;19920;-70
2023/07/28 00:12:02;;;;;;;;;;;;;;;15.65;100.00;95224.66;5046054;28;20399;-70
2023/07/28 00:14:28;;;;;;;;;;;;;;;15.66;100.00;95219.28;5051985;28;19940;-70
2023/07/28 00:16:57;;;;;;;;;;;;;;;15.59;100.00;95212.97;5048367;28;20393;-70
2023/07/28 00:19:23;;;;;;;;;;;;;;;15.60;100.00;95214.59;5051932;28;19933;-70
2023/07/28 00:21:50;;;;;;;;;;;;;;;15.58;100.00;95215.72;5046404;28;19967;-70
2023/07/28 00:24:18;;;;;;;;;;;;;;;15.48;100.00;95213.94;5047708;28;19925;-70
2023/07/28 00:26:45;;;;;;;;;;;;;;;15.40;100.00;95220.81;5047906;28;19928;-70
2023/07/28 00:29:11;;;;;;;;;;;;;;;15.35;100.00;95215.19;5048220;28;19936;-70
2023/07/28 00:31:37;;;;;;;;;;;;;;;15.35;100.00;95209.97;5050041;28;19924;-70
2023/07/28 00:34:05;;;;;;;;;;;;;;;15.33;100.00;95212.72;5049140;28;20401;-70
2023/07/28 00:36:31;;;;;;;;;;;;;;;15.33;100.00;95210.13;5047132;28;19983;-70
2023/07/28 00:38:58;;;;;;;;;;;;;;;15.34;100.00;95201.31;5048737;28;19924;-70
2023/07/28 00:41:24;;;;;;;;;;;;;;;15.24;100.00;95211.78;5051295;28;19920;-70
2023/07/28 00:43:51;;;;;;;;;;;;;;;15.30;100.00;95201.75;5050946;28;19944;-70
2023/07/28 00:46:17;;;;;;;;;;;;;;;15.32;100.00;95211.09;5043968;28;19924;-70
2023/07/28 00:48:44;;;;;;;;;;;;;;;15.33;100.00;95210.13;5046681;28;19932;-70
2023/07/28 00:51:12;;;;;;;;;;;;;;;15.29;100.00;95208.75;5041750;28;20387;-70
2023/07/28 00:53:38;;;;;;;;;;;;;;;15.12;100.00;95212.88;5047107;28;19924;-70
2023/07/28 00:56:05;;;;;;;;;;;;;;;15.07;100.00;95212.47;5042744;28;19921;-70
2023/07/28 00:58:31;;;;;;;;;;;;;;;15.11;100.00;95206.00;5039761;28;19928;-70
2023/07/28 01:00:57;;;;;;;;;;;;;;;15.20;100.00;95199.13;5046764;28;20374;-70
2023/07/28 01:03:24;;;;;;;;;;;;;;;15.22;100.00;95202.44;5048957;28;19932;-70
2023/07/28 01:05:56;;;;;;;;;;;;;;;15.07;100.00;95202.03;5046403;28;19920;-70
2023/07/28 01:08:28;;;;;;;;;;;;;;;14.98;100.00;95203.69;5045069;28;19932;-70
2023/07/28 01:10:54;;;;;;;;;;;;;;;14.93;100.00;95207.66;5045942;28;20385;-70
2023/07/28 01:13:20;;;;;;;;;;;;;;;14.92;100.00;95212.03;5048111;28;20274;-70
2023/07/28 01:15:47;;;;;;;;;;;;;;;14.93;100.00;95208.47;5046351;28;19925;-70
2023/07/28 01:18:14;;;;;;;;;;;;;;;14.91;100.00;95212.19;5048874;28;19928;-70
2023/07/28 01:20:41;;;;;;;;;;;;;;;14.87;100.00;95206.44;5043928;28;19928;-70
2023/07/28 01:23:09;;;;;;;;;;;;;;;14.86;100.00;95212.56;5043738;28;19932;-70
2023/07/28 01:25:44;;;;;;;;;;;;;;;14.85;100.00;95205.72;5045004;28;19960;-70
2023/07/28 01:28:13;;;;;;;;;;;;;;;14.83;100.00;95205.06;5047077;28;19932;-70
2023/07/28 01:30:39;;;;;;;;;;;;;;;14.84;100.00;95206.69;5044571;28;19927;-70
2023/07/28 01:33:06;;;;;;;;;;;;;;;14.82;100.00;95199.97;5047536;28;20548;-70
2023/07/28 01:35:33;;;;;;;;;;;;;;;14.80;100.00;95199.28;5048318;28;19924;-70
2023/07/28 01:37:59;;;;;;;;;;;;;;;14.76;100.00;95196.94;5048322;28;19967;-70
2023/07/28 01:40:25;;;;;;;;;;;;;;;14.81;100.00;95196.53;5046810;28;19928;-70
2023/07/28 01:42:52;;;;;;;;;;;;;;;14.80;100.00;95191.47;5042434;28;19928;-70
2023/07/28 01:45:19;;;;;;;;;;;;;;;14.73;100.00;95188.56;5043597;28;19921;-70
2023/07/28 01:47:46;;;;;;;;;;;;;;;14.66;100.00;95183.06;5049220;28;19924;-70
2023/07/28 01:50:12;;;;;;;;;;;;;;;14.54;100.00;95184.16;5043844;28;19936;-70
2023/07/28 01:52:38;;;;;;;;;;;;;;;14.59;100.00;95181.97;5040823;28;19927;-70
2023/07/28 01:55:06;;;;;;;;;;;;;;;14.64;100.00;95177.16;5039771;28;19928;-70
2023/07/28 01:57:33;;;;;;;;;;;;;;;14.45;100.00;95174.50;5046173;28;20390;-70
2023/07/28 01:59:59;;;;;;;;;;;;;;;14.43;100.00;95169.44;5049910;28;19928;-70
2023/07/28 02:02:27;;;;;;;;;;;;;;;14.41;100.00;95160.09;5045448;28;20321;-70
2023/07/28 02:04:53;;;;;;;;;;;;;;;14.35;100.00;95158.03;5041619;28;19920;-70
2023/07/28 02:07:19;;;;;;;;;;;;;;;14.48;100.00;95162.03;5044789;28;19921;-70
2023/07/28 02:09:46;;;;;;;;;;;;;;;14.49;100.00;95163.69;5049253;28;19932;-70
2023/07/28 02:12:12;;;;;;;;;;;;;;;14.47;100.00;95165.59;5049211;28;20398;-70
2023/07/28 02:14:38;;;;;;;;;;;;;;;14.42;100.00;95162.56;5042949;28;21457;-70
2023/07/28 02:17:05;;;;;;;;;;;;;;;14.44;100.00;95165.03;5043236;28;19928;-70
2023/07/28 02:19:32;;;;;;;;;;;;;;;14.44;100.00;95165.03;5049753;28;19935;-70
2023/07/28 02:21:59;;;;;;;;;;;;;;;14.40;100.00;95161.06;5045661;28;19927;-70
2023/07/28 02:24:25;;;;;;;;;;;;;;;14.17;100.00;95176.91;5043153;28;20441;-70
2023/07/28 02:26:51;;;;;;;;;;;;;;;14.31;100.00;95173.09;5043773;28;19924;-70
2023/07/28 02:29:17;;;;;;;;;;;;;;;14.13;100.00;95179.91;5049511;28;19928;-70
2023/07/28 02:31:44;;;;;;;;;;;;;;;14.15;100.00;95172.78;5041166;28;19971;-70
2023/07/28 02:34:10;;;;;;;;;;;;;;;14.10;100.00;95174.97;5043322;28;19929;-70
2023/07/28 02:36:38;;;;;;;;;;;;;;;14.25;100.00;95177.06;5043980;28;19932;-70
2023/07/28 02:39:04;;;;;;;;;;;;;;;14.27;100.00;95177.75;5045028;28;19921;-70
2023/07/28 02:41:30;;;;;;;;;;;;;;;14.32;100.00;95176.53;5035722;28;19924;-71
2023/07/28 02:43:56;;;;;;;;;;;;;;;14.27;100.00;95176.91;5044802;28;19925;-70
2023/07/28 02:46:23;;;;;;;;;;;;;;;14.19;100.00;95174.97;5048706;28;19928;-70
2023/07/28 02:48:49;;;;;;;;;;;;;;;14.11;100.00;95182.63;5048617;28;19928;-70
2023/07/28 02:51:15;;;;;;;;;;;;;;;14.03;100.00;95191.13;5039320;28;19940;-70
2023/07/28 02:53:43;;;;;;;;;;;;;;;14.10;100.00;95195.81;5037111;28;19925;-70
2023/07/28 02:56:09;;;;;;;;;;;;;;;14.07;100.00;95199.47;5041619;28;19929;-70
2023/07/28 02:58:36;;;;;;;;;;;;;;;14.07;100.00;95202.09;5046568;28;19925;-70
2023/07/28 03:01:02;;;;;;;;;;;;;;;14.16;100.00;95205.69;5040530;28;19971;-70
2023/07/28 03:03:28;;;;;;;;;;;;;;;14.25;100.00;95203.13;5037589;28;19947;-70
2023/07/28 03:05:54;;;;;;;;;;;;;;;14.08;100.00;95198.53;5044657;28;19929;-70
2023/07/28 03:08:21;;;;;;;;;;;;;;;14.15;100.00;95210.06;5048360;28;19932;-70
2023/07/28 03:10:48;;;;;;;;;;;;;;;14.18;100.00;95208.97;5041088;28;20313;-70
2023/07/28 03:13:15;;;;;;;;;;;;;;;14.16;100.00;95214.31;5042923;28;19932;-70
2023/07/28 03:15:41;;;;;;;;;;;;;;;14.23;100.00;95217.22;5042752;28;19924;-70
2023/07/28 03:18:07;;;;;;;;;;;;;;;14.35;100.00;95223.16;5047951;28;20316;-70
2023/07/28 03:20:33;;;;;;;;;;;;;;;14.32;100.00;95215.63;5044439;28;19936;-70
2023/07/28 03:23:00;;;;;;;;;;;;;;;14.37;100.00;95219.47;5043727;28;19940;-70
2023/07/28 03:25:26;;;;;;;;;;;;;;;14.29;100.00;95227.13;5041199;28;19959;-70
2023/07/28 03:27:54;;;;;;;;;;;;;;;14.29;100.00;95229.72;5047912;28;19921;-70
2023/07/28 03:30:20;;;;;;;;;;;;;;;14.29;100.00;95232.31;5039321;28;19921;-70
2023/07/28 03:32:46;;;;;;;;;;;;;;;14.32;100.00;95234.69;5043630;28;19931;-70
2023/07/28 03:35:13;;;;;;;;;;;;;;;14.38;100.00;95243.72;5044818;28;20329;-70
2023/07/28 03:37:40;;;;;;;;;;;;;;;14.41;100.00;95235.66;5051518;28;19932;-70
2023/07/28 03:40:06;;;;;;;;;;;;;;;14.41;100.00;95239.06;5044662;28;19928;-70
2023/07/28 03:42:33;;;;;;;;;;;;;;;14.48;100.00;95237.59;5047115;28;19921;-70
2023/07/28 03:45:01;;;;;;;;;;;;;;;14.48;100.00;95234.97;5051536;28;19929;-70
2023/07/28 03:47:27;;;;;;;;;;;;;;;14.43;100.00;95236.34;5046962;28;19928;-70
2023/07/28 03:49:54;;;;;;;;;;;;;;;14.37;100.00;95242.91;5046325;28;19929;-70
2023/07/28 03:52:20;;;;;;;;;;;;;;;14.37;100.00;95250.72;5046407;28;19945;-70
2023/07/28 03:54:46;;;;;;;;;;;;;;;14.41;100.00;95256.50;5051731;28;19940;-70
2023/07/28 03:57:13;;;;;;;;;;;;;;;14.44;100.00;95248.41;5051851;28;19928;-70
2023/07/28 03:59:39;;;;;;;;;;;;;;;14.50;100.00;95246.16;5052461;28;19928;-70
2023/07/28 04:02:06;;;;;;;;;;;;;;;14.63;100.00;95252.88;5047876;28;20391;-70
2023/07/28 04:04:33;;;;;;;;;;;;;;;14.72;100.00;95247.69;5052014;28;19925;-70
2023/07/28 04:06:59;;;;;;;;;;;;;;;14.79;100.00;95249.75;5050466;28;19928;-70
2023/07/28 04:09:25;;;;;;;;;;;;;;;14.76;100.00;95246.47;5051425;28;20305;-70
2023/07/28 04:11:52;;;;;;;;;;;;;;;14.80;100.00;95248.81;5044298;28;19925;-71
2023/07/28 04:14:18;;;;;;;;;;;;;;;14.80;100.00;95254.03;5050870;28;19978;-70
2023/07/28 04:16:44;;;;;;;;;;;;;;;14.81;100.00;95237.44;5047547;28;19929;-70
2023/07/28 04:19:12;;;;;;;;;;;;;;;14.81;100.00;95235.63;5043878;28;19920;-70
2023/07/28 04:21:39;;;;;;;;;;;;;;;14.84;100.00;95237.16;5047105;28;19947;-70
2023/07/28 04:24:06;;;;;;;;;;;;;;;14.84;100.00;95234.56;5049228;28;19935;-69
2023/07/28 04:26:32;;;;;;;;;;;;;;;14.84;100.00;95237.16;5042509;28;19921;-71
2023/07/28 04:28:58;;;;;;;;;;;;;;;14.73;100.00;95230.28;5043205;28;19925;-70
2023/07/28 04:31:25;;;;;;;;;;;;;;;14.79;100.00;95231.50;5038128;28;19925;-70
2023/07/28 04:33:51;;;;;;;;;;;;;;;14.79;100.00;95236.72;5049370;28;19929;-70
2023/07/28 04:36:19;;;;;;;;;;;;;;;14.86;100.00;95238.66;5046987;28;19925;-71
2023/07/28 04:38:45;;;;;;;;;;;;;;;14.92;100.00;95226.88;5049547;28;19994;-70
2023/07/28 04:41:11;;;;;;;2.70;2.50;;;;;;;14.96;100.00;95231.66;5051191;28;19924;-71
2023/07/28 04:43:38;;;;;;;3.58;2.95;;;;;;;14.96;100.00;95236.06;5049624;28;24494;-72
2023/07/28 04:46:04;;;;;;;3.20;2.63;;;;;;;14.99;100.00;95217.53;5049540;28;20095;-72
2023/07/28 04:48:31;;;;;;;3.17;2.38;;;;;;;15.03;100.00;95224.13;5049784;28;20045;-72
2023/07/28 04:50:57;;;;;;;2.38;2.17;;;;;;;15.02;100.00;95225.09;5050013;28;20045;-71
2023/07/28 04:53:25;;;;;;;3.80;2.75;;;;;;;15.03;100.00;95236.34;5041319;28;20053;-72
2023/07/28 04:55:51;;;;;;;4.13;2.63;;;;;;;14.96;100.00;95233.47;5044444;28;20052;-72
2023/07/28 04:58:18;;;;;;;3.97;2.40;;;;;;;14.91;100.00;95230.44;5048287;28;20045;-71
2023/07/28 05:00:44;;;;;;;2.90;2.58;;;;;;;14.68;100.00;95235.06;5049607;28;20049;-72
2023/07/28 05:03:10;;;;;;;3.60;2.38;;;;;;;14.65;100.00;95246.59;5044499;28;20503;-72
2023/07/28 05:05:37;;;;;;;3.03;2.70;;;;;;;14.50;100.00;95247.94;5047875;28;20052;-72
2023/07/28 05:08:03;;;;;;;;;;;;;;;14.57;100.00;95242.97;5051474;28;20490;-72
2023/07/28 05:10:31;;;;;;;;;;;;;;;14.67;100.00;95244.66;5051682;28;20325;-70
2023/07/28 05:12:57;;;;;;;;;;;;;;;14.77;100.00;95237.69;5053274;28;19928;-71
2023/07/28 05:15:23;;;;;;;;;;;;;;;14.81;100.00;95242.63;5050490;28;19928;-71
2023/07/28 05:17:50;;;;;;;;;;;;;;;14.87;100.00;95245.53;5042814;28;19920;-71
2023/07/28 05:20:17;;;;;;;;;;;;;;;14.91;100.00;95257.34;5050314;28;19931;-71
2023/07/28 05:22:43;;;;;;;;;;;;;;;15.00;100.00;95253.91;5041765;28;19987;-71
2023/07/28 05:25:09;;;;;;;;;;;;;;;15.02;100.00;95256.41;5046636;28;20402;-71
2023/07/28 05:27:37;;;;;;;;;;;;;;;15.06;100.00;95255.16;5049345;28;20086;-72
2023/07/28 05:30:04;;;;;;;3.97;2.53;;;;;;;15.14;100.00;95257.91;5051314;28;20328;-71
2023/07/28 05:32:31;;;;;;;4.25;2.95;;;;;;;15.07;100.00;95271.63;5049475;28;24796;-71
2023/07/28 05:34:57;;;;;;;2.63;2.42;;;;;;;15.05;100.00;95271.75;5046475;28;20048;-71
2023/07/28 05:37:24;;;;;;;2.53;2.30;;;;;;;15.01;100.00;95276.41;5056164;28;20177;-72
2023/07/28 05:39:50;;;;;;;4.47;2.03;;;;;;;15.02;100.00;95272.03;5051009;28;20045;-71
2023/07/28 05:42:17;;;;;;;3.05;2.70;;;;;;;15.01;100.00;95281.63;5049745;28;20049;-73
2023/07/28 05:44:45;;;;;;;8.00;2.72;;;;;;;15.03;100.00;95285.91;5051270;28;20415;-73
2023/07/28 05:47:11;;;;;;;5.78;2.85;;;;;;;15.09;100.00;95280.13;5044301;28;20423;-73
2023/07/28 05:49:38;;;;;;;2.80;2.47;;;;;;;15.13;100.00;95282.34;5047548;28;20507;-73
2023/07/28 05:52:04;;;;;;;2.33;2.10;;;;;;;15.15;100.00;95285.63;5045865;28;20396;-76
2023/07/28 05:54:30;;;;;;;2.25;2.05;;;;;;;15.15;100.00;95290.84;5059518;28;20053;-72
2023/07/28 05:56:57;;;;;;;2.63;2.42;;;;;;;15.17;100.00;95285.50;5048119;28;20045;-73
2023/07/28 05:59:23;;;;;;;5.65;2.72;;;;;;;15.17;100.00;95293.34;5049241;28;20442;-73
2023/07/28 06:01:51;;;;;;;3.25;2.53;;;;;;;15.15;100.00;95288.22;5048328;28;20045;-72
2023/07/28 06:04:18;;;;;;;4.78;2.88;;;;;;;15.09;100.00;95288.78;5043732;28;20136;-72
2023/07/28 06:06:44;;;;;;;3.33;3.03;;;;;;;15.19;100.00;95300.03;5050885;28;20139;-72
2023/07/28 06:09:10;;;;;;;2.35;2.17;;;;;;;15.27;100.00;95304.56;5047990;28;20056;-72
2023/07/28 06:11:37;;;;;;;3.55;2.88;;;;;;;15.29;100.00;95292.22;5051237;28;20450;-72
2023/07/28 06:14:03;;;;;;;2.55;2.22;;;;;;;15.33;100.00;95301.44;5041549;28;20102;-72
2023/07/28 06:16:31;;;;;;;4.05;2.47;;;;;;;15.29;100.00;95313.09;5049784;28;20091;-72
2023/07/28 06:18:58;;;;;;;2.83;2.55;;;;;;;15.31;100.00;95311.16;5042723;28;20064;-72
2023/07/28 06:21:25;;;;;;;2.70;2.30;;;;;;;15.35;100.00;95302.13;5042511;28;20049;-72
2023/07/28 06:23:51;;;;;;;2.60;2.40;;;;;;;15.38;100.00;95301.00;5044740;28;20079;-72
2023/07/28 06:26:18;;;;;;;3.28;2.40;;;;;;;15.41;100.00;95285.09;5050339;28;20041;-72
2023/07/28 06:28:45;;;;;;;2.45;2.25;;;;;;;15.48;100.00;95283.56;5046396;28;20056;-72
2023/07/28 06:31:11;;;;;;;6.88;2.40;;;;;;;15.46;100.00;95291.56;5042226;28;20087;-72
2023/07/28 06:33:38;;;;;;;3.38;3.03;;;;;;;15.33;100.00;95284.97;5043144;28;20132;-72
2023/07/28 06:36:06;;;;;;;4.55;3.05;;;;;;;15.33;100.00;95288.38;5046796;28;20053;-72
2023/07/28 06:38:32;;;;;;;3.72;2.85;;;;;;;15.33;100.00;95300.63;5050557;28;20041;-72
2023/07/28 06:40:59;;;;;;;4.00;3.10;;;;;;;15.38;100.00;95298.41;5038842;28;20136;-72
2023/07/28 06:43:27;;;;;;;3.08;2.85;;;;;;;15.45;100.00;95300.31;5045925;28;20045;-72
2023/07/28 06:45:54;;;;;;;3.65;2.90;;;;;;;15.37;100.00;95294.97;5047465;28;20052;-72
2023/07/28 06:48:21;;;;;;;6.82;3.05;;;;;;;15.55;100.00;95296.91;5041295;28;20053;-72
2023/07/28 06:50:47;;;;;;;3.20;2.90;;;;;;;15.54;100.00;95309.13;5045053;28;20049;-72
2023/07/28 06:53:15;;;;;;;9.13;3.30;;;;;;;15.66;100.00;95299.41;5047314;28;20391;-72
2023/07/28 06:55:44;;;;;;;4.55;3.13;;;;;;;15.68;100.00;95300.06;5038549;28;20412;-74
2023/07/28 06:58:10;;;;;;;4.28;2.88;;;;;;;15.67;100.00;95308.88;5049689;28;20048;-72
2023/07/28 07:00:37;;;;;;;4.13;2.80;;;;;;;15.77;100.00;95312.31;5046114;28;20056;-72
2023/07/28 07:03:03;;;;;;;3.20;2.85;;;;;;;16.01;100.00;95308.41;5048378;28;20045;-72
2023/07/28 07:05:30;;;;;;;6.05;3.00;;;;;;;16.19;100.00;95318.00;5049007;28;20659;-72
2023/07/28 07:07:57;;;;;;;4.50;2.55;;;;;;;16.34;100.00;95323.59;5047991;28;20131;-72
2023/07/28 07:10:25;;;;;;;3.78;3.03;;;;;;;16.47;100.00;95317.25;5047508;28;20433;-73
2023/07/28 07:12:51;;;;;;;6.03;3.13;;;;;;;16.60;100.00;95315.09;5051891;28;20410;-73
2023/07/28 07:15:18;;;;;;;3.05;2.63;;;;;;;16.68;100.00;95316.03;5054401;28;20053;-72
2023/07/28 07:17:44;;;;;;;4.15;2.92;;;;;;;16.74;100.00;95314.66;5050574;28;20053;-71
2023/07/28 07:20:12;;;;;;;5.47;2.65;;;;;;;16.72;100.00;95319.16;5048518;28;20053;-71
2023/07/28 07:22:38;;;;;;;3.28;2.78;;;;;;;16.74;100.00;95317.28;5050094;28;20060;-72
2023/07/28 07:25:07;;;;;;;5.03;2.25;;;;;;;16.81;100.00;95318.34;5046692;28;20099;-72
2023/07/28 07:27:34;;;;;;;4.03;2.47;;;;;;;16.84;100.00;95310.22;5047424;28;20049;-72
2023/07/28 07:30:01;;;;;;;2.45;2.22;;;;;;;16.85;100.00;95324.09;5058079;28;20056;-72
2023/07/28 07:32:27;;;;;;;3.47;2.70;;;;;;;16.90;100.00;95324.47;5060821;28;20048;-72
2023/07/28 07:34:54;;;;;;;4.50;2.92;;;;;;;16.95;100.00;95324.06;5059282;28;20041;-73
2023/07/28 07:37:20;;;;;;;4.00;2.78;;;;;;;16.92;100.00;95327.78;5048183;28;20106;-73
2023/07/28 07:39:47;;;;;;;3.25;2.40;;;;;;;16.93;100.00;95324.19;5052857;28;20465;-74
2023/07/28 07:42:14;;;;;;;3.38;2.03;;;;;;;17.02;100.00;95330.34;5046918;28;20054;-73
2023/07/28 07:44:42;;;;;;;6.80;2.58;;;;;;;17.12;100.00;95339.78;5044160;28;20364;-73
2023/07/28 07:47:16;;;;;;;2.45;2.10;;;;;;;17.24;100.00;95336.94;5045908;28;20045;-73
2023/07/28 07:49:42;;;;;;;3.92;2.70;;;;;;;17.30;100.00;95346.84;5049949;28;20052;-73
2023/07/28 07:52:09;;;;;;;2.30;2.10;;;;;;;17.42;100.00;95348.28;5048973;28;20052;-73
2023/07/28 07:54:36;;;;;;;4.47;2.60;;;;;;;17.60;100.00;95341.25;5051746;28;20048;-73
2023/07/28 07:57:02;;;;;;;4.38;1.95;;;;;;;17.66;100.00;95353.75;5051487;28;20103;-73
2023/07/28 07:59:31;;;;;;;1.70;1.60;;;;;;;17.70;100.00;95353.47;5051843;28;20041;-72
2023/07/28 08:02:00;;;;;;;5.80;2.40;;;;;;;17.86;100.00;95351.00;5051228;28;20053;-74
2023/07/28 08:04:27;;;;;;;2.40;2.20;;;;;;;17.92;100.00;95360.88;5047685;28;20045;-72
2023/07/28 08:06:54;;;;;;;3.67;2.30;;;;;;;18.02;100.00;95358.16;5049658;28;20049;-72
2023/07/28 08:09:20;;;;;;;2.53;2.00;;;;;;;18.11;100.00;95362.50;5051478;28;20049;-72
2023/07/28 08:11:47;;;;;;;2.67;1.77;;;;;;;18.17;100.00;95356.66;5046123;28;20450;-72
2023/07/28 08:14:13;;;;;;;1.67;1.55;;;;;;;18.55;100.00;95355.41;5062015;28;20044;-73
2023/07/28 08:16:40;;;;;;;5.38;2.17;;;;;;;18.76;100.00;95357.72;5052533;28;20150;-73
2023/07/28 08:19:08;;;;;;;1.70;1.40;;;;;;;18.96;100.00;95355.66;5052591;28;20502;-73
2023/07/28 08:21:36;;;;;;;2.80;1.98;;;;;;;18.96;100.00;95362.72;5050256;28;20056;-73
2023/07/28 08:24:03;;;;;;;1.63;1.50;;;;;;;19.19;100.00;95361.13;5052987;28;20055;-73
2023/07/28 08:26:30;;;;;;;2.78;1.65;;;;;;;19.24;100.00;95368.53;5045129;28;20049;-73
2023/07/28 08:28:56;;;;;;;7.70;1.95;;;;;;;19.33;100.00;95372.84;5045079;28;20514;-74
2023/07/28 08:31:22;;;;;;;1.92;1.70;;;;;;;19.33;100.00;95376.28;5049398;28;20052;-75
2023/07/28 08:33:49;;;;;;;2.13;1.80;;;;;;;19.33;100.00;95372.84;5051654;28;20045;-74
2023/07/28 08:36:17;;;;;;;4.53;1.45;;;;;;;19.30;100.00;95371.34;5046403;28;20512;-74
2023/07/28 08:38:44;;;;;;;2.13;1.80;;;;;;;19.29;100.00;95374.97;5044484;28;20052;-73
2023/07/28 08:41:11;;;;;;;3.90;1.40;;;;;;;19.49;100.00;95375.50;5048573;28;20107;-73
2023/07/28 08:43:38;;;;;;;9.15;1.48;;;;;;;19.50;100.00;95382.38;5045307;28;20041;-73
2023/07/28 08:46:04;;;;;;;1.50;1.20;;;;;;;19.48;100.00;95387.00;5043908;28;20049;-73
2023/07/28 08:48:31;;;;;;;1.75;1.50;;;;;;;19.41;100.00;95380.75;5050047;28;20049;-73
2023/07/28 08:50:57;;;;;;;2.97;1.80;;;;;;;19.23;100.00;95372.97;5049646;28;20045;-73
2023/07/28 08:53:25;;;;;;;1.42;1.27;;;;;;;19.29;100.00;95376.78;5040900;28;20041;-73
2023/07/28 08:55:52;;;;;;;2.35;1.67;;;;;;;19.45;100.00;95376.00;5046415;28;20049;-73
2023/07/28 08:58:20;;;;;;;1.17;1.08;;;;;;;19.51;100.00;95383.25;5045300;28;20048;-73
2023/07/28 09:00:48;;;;;;;;;;;;;;;19.65;100.00;95381.81;5052911;28;20047;-73
2023/07/28 09:03:15;;;;;;;;;;;;;;;19.72;100.00;95388.06;5051274;28;19925;-72
2023/07/28 09:05:41;;;;;;;;;;;;;;;19.72;100.00;95388.06;5052161;28;19924;-72
2023/07/28 09:08:08;;;;;;;;;;;;;;;19.75;100.00;95395.63;5044822;28;19921;-72
2023/07/28 09:10:46;;;;;;;;;;;;;;;19.78;100.00;95392.66;5052546;28;19956;-72
2023/07/28 09:13:13;;;;;;;;;;;;;;;19.73;100.00;95390.53;5049814;28;19920;-72
2023/07/28 09:15:40;;;;;;;;;;;;;;;19.68;100.00;95399.88;5049161;28;19971;-72
2023/07/28 09:18:08;;;;;;;;;;;;;;;19.66;100.00;95391.34;5047635;28;19978;-73
2023/07/28 09:20:35;;;;;;;;;;;;;;;19.64;100.00;95401.19;5043312;28;19943;-72
2023/07/28 09:23:01;;;;;;;;;;;;;;;19.53;100.00;95403.09;5052177;28;20020;-72
2023/07/28 09:25:29;;;;;;;;;;;;;;;19.57;100.00;95403.59;5049872;28;19929;-73
2023/07/28 09:27:57;;;;;;;;;;;;;;;19.63;100.00;95399.53;5051773;28;19920;-73
2023/07/28 09:30:24;;;;;;;;;;;;;;;19.76;100.00;95405.97;5049031;28;19932;-73
2023/07/28 09:32:51;;;;;;;;;;;;;;;19.53;100.00;95412.78;5051772;28;19927;-73
2023/07/28 09:35:18;;;;;;;;;;;;;;;19.42;100.00;95411.25;5048530;28;19925;-72
2023/07/28 09:37:45;;;;;;;;;;;;;;;19.35;100.00;95410.25;5052360;28;19920;-74
2023/07/28 09:40:12;;;;;;;;;;;;;;;19.33;100.00;95412.22;5049848;28;19954;-73
2023/07/28 09:42:39;;;;;;;;;;;;;;;19.35;100.00;95412.88;5051120;28;19928;-73
2023/07/28 09:45:09;;;;;;;;;;;;;;;19.53;100.00;95410.16;5048821;28;20721;-73
2023/07/28 09:47:36;;;;;;;;;;;;;;;19.66;100.00;95413.19;5049386;28;19927;-73
2023/07/28 09:50:04;;;;;;;;;;;;;;;19.65;100.00;95419.41;5049293;28;19929;-73
2023/07/28 09:52:32;;;;;;;;;;;;;;;19.51;100.00;95414.75;5047568;28;19929;-73
2023/07/28 09:55:08;;;;;;;;;;;;;;;19.64;100.00;95407.25;5113569;27;19916;-72
2023/07/28 09:57:37;;;;;;;;;;;;;;;20.11;100.00;95405.84;5093807;28;20405;-72
2023/07/28 10:00:05;;;;;;;;;;;;;;;19.98;100.00;95408.94;5096343;28;19924;-72
2023/07/28 10:02:31;;;;;;;;;;;;;;;20.07;100.00;95410.63;5096158;28;19929;-72
2023/07/28 10:04:58;;;;;;;;;;;;;;;20.20;100.00;95423.25;5096722;28;20363;-72
2023/07/28 10:07:25;;;;;;;;;;;;;;;20.57;100.00;95424.59;5102425;28;20316;-72
2023/07/28 10:09:51;;;;;;;;;;;;;;;20.76;100.00;95411.91;5094423;28;19929;-72
2023/07/28 10:12:26;;;;;;;;;;;;;;;21.17;100.00;95418.84;5100691;28;19973;-72
2023/07/28 10:15:00;;;;;;;;;;;;;;;21.42;100.00;95423.06;5089366;28;20023;-72
2023/07/28 10:17:31;;;;;;;;;;;;;;;21.50;100.00;95415.13;5100426;28;19931;-72
2023/07/28 10:19:58;;;;;;;;;;;;;;;21.34;100.00;95417.03;5096380;28;19954;-72
2023/07/28 10:22:26;;;;;;;;;;;;;;;21.10;100.00;95412.63;5096186;28;19927;-72
2023/07/28 10:24:53;;;;;;;;;;;;;;;20.88;100.00;95408.94;5094360;28;19925;-71
2023/07/28 10:27:31;;;;;;;;;;;;;;;20.80;100.00;95412.38;5096300;28;19985;-72
2023/07/28 10:29:58;;;;;;;;;;;;;;;20.98;100.00;95412.16;5091404;28;19944;-70
2023/07/28 10:32:26;;;;;;;;;;;;;;;20.74;100.00;95410.44;5097692;28;20372;-71
2023/07/28 10:34:59;;;;;;;;;;;;;;;20.73;100.00;95411.44;5093297;28;20278;-72
2023/07/28 10:37:25;;;;;;;;;;;;;;;20.65;100.00;95414.06;5103058;28;19928;-72
2023/07/28 10:40:17;;;;;;;;;;;;;;;20.71;100.00;95416.84;5093624;28;20409;-72
2023/07/28 10:42:44;;;;;;;;;;;;;;;20.83;100.00;95416.50;5101378;28;19928;-72
2023/07/28 10:45:12;;;;;;;;;;;;;;;20.95;100.00;95417.75;5092954;28;19928;-72
2023/07/28 10:47:39;;;;;;;;;;;;;;;20.91;100.00;95419.94;5099432;28;19928;-72
2023/07/28 10:50:05;;;;;;;;;;;;;;;21.05;100.00;95421.03;5101332;28;20361;-72
2023/07/28 10:52:31;;;;;;;;;;;;;;;21.15;100.00;95424.31;5097262;28;19935;-72
2023/07/28 10:54:58;;;;;;;;;;;;;;;21.28;100.00;95426.38;5116712;28;19935;-72
2023/07/28 10:57:26;;;;;;;;;;;;;;;21.39;100.00;95423.41;5118677;27;19967;-72
2023/07/28 10:59:53;;;;;;;;;;;;;;;21.42;100.00;95428.34;5116383;28;19924;-72
2023/07/28 11:02:20;;;;;;;;;;;;;;;21.38;100.00;95427.03;5114122;28;19931;-76
2023/07/28 11:04:47;;;;;;;;;;;;;;;21.29;100.00;95438.59;5109500;28;19932;-73
2023/07/28 11:07:14;;;;;;;;;;;;;;;21.34;100.00;95424.91;5105308;28;19993;-73
2023/07/28 11:09:40;;;;;;;;;;;;;;;21.32;100.00;95438.25;5103109;28;20016;-72
2023/07/28 11:12:09;;;;;;;;;;;;;;;21.27;100.00;95435.28;5097877;28;19935;-72
2023/07/28 11:14:36;;;;;;;;;;;;;;;21.14;100.00;95433.19;5102547;28;19987;-72
2023/07/28 11:17:03;;;;;;;;;;;;;;;21.10;100.00;95438.94;5100702;28;19931;-73
2023/07/28 11:19:30;;;;;;;;;;;;;;;20.99;100.00;95433.06;5102397;28;19955;-73
2023/07/28 11:21:58;;;;;;;;;;;;;;;20.82;100.00;95438.53;5100783;28;20022;-73
2023/07/28 11:24:25;;;;;;;;;;;;;;;20.66;100.00;95432.31;5102124;28;19950;-72
2023/07/28 11:26:52;;;;;;;;;;;;;;;20.57;100.00;95443.00;5103443;28;19929;-72
2023/07/28 11:29:19;;;;;;;;;;;;;;;20.45;100.00;95439.88;5101659;28;19931;-72
2023/07/28 11:31:45;;;;;;;;;;;;;;;20.34;100.00;95433.13;5095254;28;19931;-72
2023/07/28 11:34:15;;;;;;;;;;;;;;;20.44;100.00;95432.97;5102567;28;19927;-73
2023/07/28 11:36:42;;;;;;;;;;;;;;;20.37;100.00;95435.44;5098847;28;20011;-73
2023/07/28 11:39:08;;;;;;;;;;;;;;;20.34;100.00;95429.69;5093081;28;20423;-72
2023/07/28 11:41:35;;;;;;;;;;;;;;;20.45;100.00;95421.44;5106575;28;19935;-72
2023/07/28 11:44:01;;;;;;;;;;;;;;;20.56;100.00;95422.97;5104677;28;19935;-72
2023/07/28 11:46:34;;;;;;;;;;;;;;;20.64;100.00;95421.13;5087823;28;19924;-72
2023/07/28 11:49:07;;;;;;;;;;;;;;;20.74;100.00;95434.94;5105163;28;19936;-72
2023/07/28 11:51:38;;;;;;;;;;;;;;;20.86;100.00;95422.25;5105528;28;19931;-72
2023/07/28 11:54:04;;;;;;;;;;;;;;;21.06;100.00;95432.38;5099070;28;19979;-72
2023/07/28 11:56:30;;;;;;;;;;;;;;;21.08;100.00;95430.41;5104663;28;19928;-72
2023/07/28 11:58:57;;;;;;;;;;;;;;;21.09;100.00;95430.22;5103156;28;19931;-71
2023/07/28 12:01:23;;;;;;;;;;;;;;;21.13;100.00;95422.81;5104101;28;19931;-72
2023/07/28 12:03:49;;;;;;;;;;;;;;;21.23;100.00;95426.09;5095742;28;19931;-71
2023/07/28 12:06:16;;;;;;;;;;;;;;;21.29;100.00;95433.31;5097168;28;19927;-72
2023/07/28 12:08:43;;;;;;;;;;;;;;;21.24;100.00;95432.97;5099128;28;19973;-72
2023/07/28 12:11:13;;;;;;;;;;;;;;;21.32;100.00;95424.22;5094543;28;19994;-72